sensor_id;sensor_type;location;lat;lon;timestamp;P1;durP1;ratioP1;P2;durP2;ratioP2
3443;SDS011;1736;52.068;6.968;2022-12-11T00:01:48;36.87;;;13.57;;
3443;SDS011;1736;52.068;6.968;2022-12-11T00:04:15;41.67;;;15.90;;
3443;SDS011;1736;52.068;6.968;2022-12-11T00:06:43;43.23;;;14.23;;
3443;SDS011;1736;52.068;6.968;2022-12-11T00:09:09;42.67;;;15.00;;
3443;SDS011;1736;52.068;6.968;2022-12-11T00:11:36;42.30;;;14.87;;
3443;SDS011;1736;52.068;6.968;2022-12-11T00:14:02;38.63;;;15.10;;
3443;SDS011;1736;52.068;6.968;2022-12-11T00:16:29;41.57;;;14.10;;
3443;SDS011;1736;52.068;6.968;2022-12-11T00:18:56;37.90;;;15.63;;
3443;SDS011;1736;52.068;6.968;2022-12-11T00:21:22;41.07;;;16.07;;
3443;SDS011;1736;52.068;6.968;2022-12-11T00:23:50;42.87;;;15.37;;
3443;SDS011;1736;52.068;6.968;2022-12-11T00:26:17;44.47;;;15.50;;
3443;SDS011;1736;52.068;6.968;2022-12-11T00:28:44;42.80;;;15.40;;
3443;SDS011;1736;52.068;6.968;2022-12-11T00:31:12;45.20;;;15.43;;
3443;SDS011;1736;52.068;6.968;2022-12-11T00:33:39;41.50;;;12.97;;
3443;SDS011;1736;52.068;6.968;2022-12-11T00:36:09;44.73;;;14.80;;
3443;SDS011;1736;52.068;6.968;2022-12-11T00:38:37;35.63;;;13.90;;
3443;SDS011;1736;52.068;6.968;2022-12-11T00:41:05;39.13;;;13.83;;
3443;SDS011;1736;52.068;6.968;2022-12-11T00:43:32;39.17;;;15.37;;
3443;SDS011;1736;52.068;6.968;2022-12-11T00:45:58;36.70;;;14.73;;
3443;SDS011;1736;52.068;6.968;2022-12-11T00:48:25;41.33;;;14.77;;
3443;SDS011;1736;52.068;6.968;2022-12-11T00:50:51;38.80;;;14.80;;
3443;SDS011;1736;52.068;6.968;2022-12-11T00:53:18;41.27;;;15.57;;
3443;SDS011;1736;52.068;6.968;2022-12-11T00:55:44;35.20;;;13.17;;
3443;SDS011;1736;52.068;6.968;2022-12-11T00:58:12;44.77;;;14.53;;
3443;SDS011;1736;52.068;6.968;2022-12-11T01:00:39;38.07;;;14.90;;
3443;SDS011;1736;52.068;6.968;2022-12-11T01:03:08;40.00;;;13.70;;
3443;SDS011;1736;52.068;6.968;2022-12-11T01:05:35;45.63;;;14.37;;
3443;SDS011;1736;52.068;6.968;2022-12-11T01:08:02;40.77;;;13.50;;
3443;SDS011;1736;52.068;6.968;2022-12-11T01:10:29;41.23;;;15.63;;
3443;SDS011;1736;52.068;6.968;2022-12-11T01:12:57;37.13;;;13.00;;
3443;SDS011;1736;52.068;6.968;2022-12-11T01:15:28;42.13;;;13.47;;
3443;SDS011;1736;52.068;6.968;2022-12-11T01:17:56;30.93;;;13.40;;
3443;SDS011;1736;52.068;6.968;2022-12-11T01:20:23;38.83;;;13.43;;
3443;SDS011;1736;52.068;6.968;2022-12-11T01:22:51;40.10;;;13.13;;
3443;SDS011;1736;52.068;6.968;2022-12-11T01:25:18;40.23;;;13.43;;
3443;SDS011;1736;52.068;6.968;2022-12-11T01:27:45;41.47;;;13.73;;
3443;SDS011;1736;52.068;6.968;2022-12-11T01:30:11;34.87;;;12.77;;
3443;SDS011;1736;52.068;6.968;2022-12-11T01:32:40;38.17;;;13.43;;
3443;SDS011;1736;52.068;6.968;2022-12-11T01:35:07;35.40;;;13.80;;
3443;SDS011;1736;52.068;6.968;2022-12-11T01:37:34;37.57;;;12.80;;
3443;SDS011;1736;52.068;6.968;2022-12-11T01:40:00;34.10;;;13.30;;
3443;SDS011;1736;52.068;6.968;2022-12-11T01:42:27;34.20;;;11.50;;
3443;SDS011;1736;52.068;6.968;2022-12-11T01:47:58;39.60;;;13.60;;
3443;SDS011;1736;52.068;6.968;2022-12-11T01:50:26;37.00;;;11.80;;
3443;SDS011;1736;52.068;6.968;2022-12-11T01:52:54;44.37;;;13.10;;
3443;SDS011;1736;52.068;6.968;2022-12-11T01:55:20;29.37;;;11.97;;
3443;SDS011;1736;52.068;6.968;2022-12-11T01:57:47;32.20;;;12.03;;
3443;SDS011;1736;52.068;6.968;2022-12-11T02:00:16;32.70;;;13.00;;
3443;SDS011;1736;52.068;6.968;2022-12-11T02:02:43;32.37;;;13.00;;
3443;SDS011;1736;52.068;6.968;2022-12-11T02:05:11;42.13;;;13.40;;
3443;SDS011;1736;52.068;6.968;2022-12-11T02:07:39;32.87;;;11.70;;
3443;SDS011;1736;52.068;6.968;2022-12-11T02:10:09;46.63;;;14.33;;
3443;SDS011;1736;52.068;6.968;2022-12-11T02:12:38;43.57;;;13.70;;
3443;SDS011;1736;52.068;6.968;2022-12-11T02:15:11;39.00;;;14.73;;
3443;SDS011;1736;52.068;6.968;2022-12-11T02:17:43;30.97;;;12.07;;
3443;SDS011;1736;52.068;6.968;2022-12-11T02:20:16;32.70;;;12.50;;
3443;SDS011;1736;52.068;6.968;2022-12-11T02:22:52;37.10;;;12.50;;
3443;SDS011;1736;52.068;6.968;2022-12-11T02:25:45;40.70;;;14.20;;
3443;SDS011;1736;52.068;6.968;2022-12-11T02:28:21;34.83;;;12.67;;
3443;SDS011;1736;52.068;6.968;2022-12-11T02:30:54;44.30;;;13.57;;
3443;SDS011;1736;52.068;6.968;2022-12-11T02:33:26;44.60;;;14.27;;
3443;SDS011;1736;52.068;6.968;2022-12-11T02:35:59;33.20;;;12.00;;
3443;SDS011;1736;52.068;6.968;2022-12-11T02:38:29;37.57;;;13.63;;
3443;SDS011;1736;52.068;6.968;2022-12-11T02:41:00;38.63;;;13.97;;
3443;SDS011;1736;52.068;6.968;2022-12-11T02:43:30;44.73;;;15.27;;
3443;SDS011;1736;52.068;6.968;2022-12-11T02:45:59;36.67;;;13.67;;
3443;SDS011;1736;52.068;6.968;2022-12-11T02:48:28;33.30;;;13.20;;
3443;SDS011;1736;52.068;6.968;2022-12-11T02:50:57;45.53;;;14.93;;
3443;SDS011;1736;52.068;6.968;2022-12-11T02:53:26;42.40;;;14.10;;
3443;SDS011;1736;52.068;6.968;2022-12-11T02:55:56;39.80;;;14.20;;
3443;SDS011;1736;52.068;6.968;2022-12-11T02:58:28;42.77;;;14.20;;
3443;SDS011;1736;52.068;6.968;2022-12-11T03:00:58;45.07;;;14.50;;
3443;SDS011;1736;52.068;6.968;2022-12-11T03:03:25;43.63;;;15.03;;
3443;SDS011;1736;52.068;6.968;2022-12-11T03:05:54;39.00;;;14.27;;
3443;SDS011;1736;52.068;6.968;2022-12-11T03:08:21;52.93;;;15.73;;
3443;SDS011;1736;52.068;6.968;2022-12-11T03:10:47;37.43;;;13.30;;
3443;SDS011;1736;52.068;6.968;2022-12-11T03:13:14;50.10;;;16.57;;
3443;SDS011;1736;52.068;6.968;2022-12-11T03:15:48;44.80;;;15.13;;
3443;SDS011;1736;52.068;6.968;2022-12-11T03:18:26;43.67;;;16.20;;
3443;SDS011;1736;52.068;6.968;2022-12-11T03:21:01;43.03;;;15.13;;
3443;SDS011;1736;52.068;6.968;2022-12-11T03:23:31;41.93;;;15.53;;
3443;SDS011;1736;52.068;6.968;2022-12-11T03:26:02;50.60;;;17.70;;
3443;SDS011;1736;52.068;6.968;2022-12-11T03:28:30;40.37;;;15.20;;
3443;SDS011;1736;52.068;6.968;2022-12-11T03:31:06;38.57;;;14.50;;
3443;SDS011;1736;52.068;6.968;2022-12-11T03:33:38;43.37;;;13.63;;
3443;SDS011;1736;52.068;6.968;2022-12-11T03:36:08;43.27;;;14.70;;
3443;SDS011;1736;52.068;6.968;2022-12-11T03:38:39;40.40;;;14.67;;
3443;SDS011;1736;52.068;6.968;2022-12-11T03:41:13;38.80;;;15.50;;
3443;SDS011;1736;52.068;6.968;2022-12-11T03:43:42;48.33;;;15.43;;
3443;SDS011;1736;52.068;6.968;2022-12-11T03:46:11;48.63;;;14.50;;
3443;SDS011;1736;52.068;6.968;2022-12-11T03:48:41;43.80;;;15.40;;
3443;SDS011;1736;52.068;6.968;2022-12-11T03:51:10;42.07;;;14.90;;
3443;SDS011;1736;52.068;6.968;2022-12-11T03:53:37;41.57;;;13.67;;
3443;SDS011;1736;52.068;6.968;2022-12-11T03:56:05;44.90;;;13.30;;
3443;SDS011;1736;52.068;6.968;2022-12-11T03:58:34;41.20;;;14.93;;
3443;SDS011;1736;52.068;6.968;2022-12-11T04:01:00;41.47;;;13.20;;
3443;SDS011;1736;52.068;6.968;2022-12-11T04:03:28;46.37;;;15.80;;
3443;SDS011;1736;52.068;6.968;2022-12-11T04:05:55;43.67;;;14.30;;
3443;SDS011;1736;52.068;6.968;2022-12-11T04:08:22;36.30;;;12.10;;
3443;SDS011;1736;52.068;6.968;2022-12-11T04:10:49;38.20;;;12.80;;
3443;SDS011;1736;52.068;6.968;2022-12-11T04:13:37;39.33;;;13.27;;
3443;SDS011;1736;52.068;6.968;2022-12-11T04:16:04;40.27;;;13.90;;
3443;SDS011;1736;52.068;6.968;2022-12-11T04:18:31;38.20;;;13.07;;
3443;SDS011;1736;52.068;6.968;2022-12-11T04:21:15;35.87;;;12.70;;
3443;SDS011;1736;52.068;6.968;2022-12-11T04:23:59;30.40;;;11.80;;
3443;SDS011;1736;52.068;6.968;2022-12-11T04:26:41;36.20;;;12.30;;
3443;SDS011;1736;52.068;6.968;2022-12-11T04:29:08;28.87;;;11.63;;
3443;SDS011;1736;52.068;6.968;2022-12-11T04:31:35;36.57;;;11.80;;
3443;SDS011;1736;52.068;6.968;2022-12-11T04:34:03;38.20;;;11.90;;
3443;SDS011;1736;52.068;6.968;2022-12-11T04:36:30;28.83;;;11.77;;
3443;SDS011;1736;52.068;6.968;2022-12-11T04:38:56;29.93;;;12.20;;
3443;SDS011;1736;52.068;6.968;2022-12-11T04:41:23;35.90;;;12.30;;
3443;SDS011;1736;52.068;6.968;2022-12-11T04:43:49;34.93;;;11.87;;
3443;SDS011;1736;52.068;6.968;2022-12-11T04:46:17;32.83;;;11.17;;
3443;SDS011;1736;52.068;6.968;2022-12-11T04:48:44;31.13;;;11.60;;
3443;SDS011;1736;52.068;6.968;2022-12-11T04:51:14;33.40;;;11.13;;
3443;SDS011;1736;52.068;6.968;2022-12-11T04:53:40;26.97;;;10.40;;
3443;SDS011;1736;52.068;6.968;2022-12-11T04:56:09;26.17;;;10.20;;
3443;SDS011;1736;52.068;6.968;2022-12-11T04:58:37;31.93;;;10.97;;
3443;SDS011;1736;52.068;6.968;2022-12-11T05:01:05;37.23;;;12.57;;
3443;SDS011;1736;52.068;6.968;2022-12-11T05:03:32;29.40;;;11.07;;
3443;SDS011;1736;52.068;6.968;2022-12-11T05:05:59;31.13;;;11.83;;
3443;SDS011;1736;52.068;6.968;2022-12-11T05:08:27;34.23;;;12.17;;
3443;SDS011;1736;52.068;6.968;2022-12-11T05:10:54;32.17;;;11.73;;
3443;SDS011;1736;52.068;6.968;2022-12-11T05:13:23;36.10;;;11.60;;
3443;SDS011;1736;52.068;6.968;2022-12-11T05:15:51;32.17;;;11.53;;
3443;SDS011;1736;52.068;6.968;2022-12-11T05:18:18;28.70;;;11.47;;
3443;SDS011;1736;52.068;6.968;2022-12-11T05:20:45;34.40;;;12.20;;
3443;SDS011;1736;52.068;6.968;2022-12-11T05:23:20;27.70;;;11.30;;
3443;SDS011;1736;52.068;6.968;2022-12-11T05:25:51;30.03;;;11.23;;
3443;SDS011;1736;52.068;6.968;2022-12-11T05:28:18;30.70;;;11.70;;
3443;SDS011;1736;52.068;6.968;2022-12-11T05:30:46;33.43;;;11.70;;
3443;SDS011;1736;52.068;6.968;2022-12-11T05:33:12;30.73;;;11.53;;
3443;SDS011;1736;52.068;6.968;2022-12-11T05:35:45;30.20;;;11.60;;
3443;SDS011;1736;52.068;6.968;2022-12-11T05:38:12;25.20;;;9.53;;
3443;SDS011;1736;52.068;6.968;2022-12-11T05:40:38;26.43;;;10.97;;
3443;SDS011;1736;52.068;6.968;2022-12-11T05:43:06;36.83;;;11.50;;
3443;SDS011;1736;52.068;6.968;2022-12-11T05:45:33;32.17;;;11.23;;
3443;SDS011;1736;52.068;6.968;2022-12-11T05:48:00;31.60;;;11.40;;
3443;SDS011;1736;52.068;6.968;2022-12-11T05:50:26;35.03;;;12.30;;
3443;SDS011;1736;52.068;6.968;2022-12-11T05:52:53;32.50;;;11.67;;
3443;SDS011;1736;52.068;6.968;2022-12-11T05:55:19;38.13;;;12.33;;
3443;SDS011;1736;52.068;6.968;2022-12-11T05:57:46;29.97;;;12.30;;
3443;SDS011;1736;52.068;6.968;2022-12-11T06:00:14;32.53;;;12.47;;
3443;SDS011;1736;52.068;6.968;2022-12-11T06:02:40;35.50;;;12.90;;
3443;SDS011;1736;52.068;6.968;2022-12-11T06:05:07;33.17;;;11.30;;
3443;SDS011;1736;52.068;6.968;2022-12-11T06:07:33;31.43;;;11.40;;
3443;SDS011;1736;52.068;6.968;2022-12-11T06:10:00;32.80;;;11.90;;
3443;SDS011;1736;52.068;6.968;2022-12-11T06:12:26;28.80;;;11.77;;
3443;SDS011;1736;52.068;6.968;2022-12-11T06:14:53;29.80;;;12.30;;
3443;SDS011;1736;52.068;6.968;2022-12-11T06:17:21;30.53;;;12.40;;
3443;SDS011;1736;52.068;6.968;2022-12-11T06:19:48;30.37;;;12.07;;
3443;SDS011;1736;52.068;6.968;2022-12-11T06:22:14;34.43;;;12.70;;
3443;SDS011;1736;52.068;6.968;2022-12-11T06:24:41;32.53;;;12.40;;
3443;SDS011;1736;52.068;6.968;2022-12-11T06:27:07;34.03;;;12.50;;
3443;SDS011;1736;52.068;6.968;2022-12-11T06:29:34;33.27;;;12.10;;
3443;SDS011;1736;52.068;6.968;2022-12-11T06:32:01;36.77;;;12.77;;
3443;SDS011;1736;52.068;6.968;2022-12-11T06:34:29;38.50;;;13.20;;
3443;SDS011;1736;52.068;6.968;2022-12-11T06:36:55;30.20;;;12.00;;
3443;SDS011;1736;52.068;6.968;2022-12-11T06:39:22;41.23;;;12.83;;
3443;SDS011;1736;52.068;6.968;2022-12-11T06:41:48;38.80;;;13.33;;
3443;SDS011;1736;52.068;6.968;2022-12-11T06:44:15;35.00;;;13.20;;
3443;SDS011;1736;52.068;6.968;2022-12-11T06:46:41;37.20;;;13.77;;
3443;SDS011;1736;52.068;6.968;2022-12-11T06:49:08;36.50;;;12.93;;
3443;SDS011;1736;52.068;6.968;2022-12-11T06:51:36;37.17;;;13.67;;
3443;SDS011;1736;52.068;6.968;2022-12-11T06:54:02;32.70;;;13.97;;
3443;SDS011;1736;52.068;6.968;2022-12-11T06:56:29;36.40;;;12.70;;
3443;SDS011;1736;52.068;6.968;2022-12-11T06:58:55;35.90;;;13.30;;
3443;SDS011;1736;52.068;6.968;2022-12-11T07:01:23;36.40;;;13.27;;
3443;SDS011;1736;52.068;6.968;2022-12-11T07:03:51;37.77;;;12.17;;
3443;SDS011;1736;52.068;6.968;2022-12-11T07:06:18;38.00;;;12.70;;
3443;SDS011;1736;52.068;6.968;2022-12-11T07:08:46;36.80;;;13.67;;
3443;SDS011;1736;52.068;6.968;2022-12-11T07:11:13;39.50;;;15.60;;
3443;SDS011;1736;52.068;6.968;2022-12-11T07:13:41;37.60;;;14.27;;
3443;SDS011;1736;52.068;6.968;2022-12-11T07:16:08;33.63;;;13.30;;
3443;SDS011;1736;52.068;6.968;2022-12-11T07:18:36;38.90;;;13.37;;
3443;SDS011;1736;52.068;6.968;2022-12-11T07:21:04;37.90;;;14.00;;
3443;SDS011;1736;52.068;6.968;2022-12-11T07:23:31;34.40;;;12.57;;
3443;SDS011;1736;52.068;6.968;2022-12-11T07:26:01;37.57;;;14.23;;
3443;SDS011;1736;52.068;6.968;2022-12-11T07:28:29;34.07;;;12.33;;
3443;SDS011;1736;52.068;6.968;2022-12-11T07:30:56;39.87;;;13.80;;
3443;SDS011;1736;52.068;6.968;2022-12-11T07:33:22;35.93;;;12.97;;
3443;SDS011;1736;52.068;6.968;2022-12-11T07:35:49;36.23;;;13.43;;
3443;SDS011;1736;52.068;6.968;2022-12-11T07:38:15;39.37;;;14.10;;
3443;SDS011;1736;52.068;6.968;2022-12-11T07:40:42;39.43;;;13.10;;
3443;SDS011;1736;52.068;6.968;2022-12-11T07:43:10;45.33;;;13.70;;
3443;SDS011;1736;52.068;6.968;2022-12-11T07:45:36;38.77;;;15.20;;
3443;SDS011;1736;52.068;6.968;2022-12-11T07:48:03;38.83;;;15.00;;
3443;SDS011;1736;52.068;6.968;2022-12-11T07:50:30;40.00;;;14.90;;
3443;SDS011;1736;52.068;6.968;2022-12-11T07:52:57;40.80;;;17.00;;
3443;SDS011;1736;52.068;6.968;2022-12-11T07:55:23;52.60;;;17.10;;
3443;SDS011;1736;52.068;6.968;2022-12-11T07:57:50;45.53;;;15.10;;
3443;SDS011;1736;52.068;6.968;2022-12-11T08:00:18;38.07;;;13.70;;
3443;SDS011;1736;52.068;6.968;2022-12-11T08:02:45;42.63;;;15.63;;
3443;SDS011;1736;52.068;6.968;2022-12-11T08:05:11;41.10;;;13.23;;
3443;SDS011;1736;52.068;6.968;2022-12-11T08:07:38;37.73;;;15.40;;
3443;SDS011;1736;52.068;6.968;2022-12-11T08:10:05;38.40;;;16.53;;
3443;SDS011;1736;52.068;6.968;2022-12-11T08:12:31;41.40;;;16.03;;
3443;SDS011;1736;52.068;6.968;2022-12-11T08:14:58;51.10;;;16.93;;
3443;SDS011;1736;52.068;6.968;2022-12-11T08:17:26;44.00;;;16.10;;
3443;SDS011;1736;52.068;6.968;2022-12-11T08:19:52;37.00;;;14.50;;
3443;SDS011;1736;52.068;6.968;2022-12-11T08:22:19;42.80;;;13.77;;
3443;SDS011;1736;52.068;6.968;2022-12-11T08:24:45;42.60;;;15.60;;
3443;SDS011;1736;52.068;6.968;2022-12-11T08:27:12;41.27;;;14.80;;
3443;SDS011;1736;52.068;6.968;2022-12-11T08:29:39;40.67;;;15.67;;
3443;SDS011;1736;52.068;6.968;2022-12-11T08:32:05;47.00;;;15.13;;
3443;SDS011;1736;52.068;6.968;2022-12-11T08:34:33;42.73;;;14.10;;
3443;SDS011;1736;52.068;6.968;2022-12-11T08:36:59;48.43;;;15.70;;
3443;SDS011;1736;52.068;6.968;2022-12-11T08:39:26;40.97;;;15.60;;
3443;SDS011;1736;52.068;6.968;2022-12-11T08:41:53;39.83;;;15.53;;
3443;SDS011;1736;52.068;6.968;2022-12-11T08:44:19;44.47;;;17.27;;
3443;SDS011;1736;52.068;6.968;2022-12-11T08:46:49;46.93;;;16.63;;
3443;SDS011;1736;52.068;6.968;2022-12-11T08:49:15;47.43;;;16.80;;
3443;SDS011;1736;52.068;6.968;2022-12-11T08:51:43;45.00;;;17.60;;
3443;SDS011;1736;52.068;6.968;2022-12-11T08:54:10;51.33;;;16.47;;
3443;SDS011;1736;52.068;6.968;2022-12-11T08:56:36;52.37;;;17.50;;
3443;SDS011;1736;52.068;6.968;2022-12-11T08:59:03;36.70;;;14.77;;
3443;SDS011;1736;52.068;6.968;2022-12-11T09:01:30;48.57;;;16.40;;
3443;SDS011;1736;52.068;6.968;2022-12-11T09:03:56;42.37;;;16.93;;
3443;SDS011;1736;52.068;6.968;2022-12-11T09:06:24;43.93;;;17.27;;
3443;SDS011;1736;52.068;6.968;2022-12-11T09:08:54;47.13;;;18.03;;
3443;SDS011;1736;52.068;6.968;2022-12-11T09:11:22;44.83;;;15.40;;
3443;SDS011;1736;52.068;6.968;2022-12-11T09:13:50;54.30;;;17.50;;
3443;SDS011;1736;52.068;6.968;2022-12-11T09:16:18;46.33;;;18.00;;
3443;SDS011;1736;52.068;6.968;2022-12-11T09:18:46;45.00;;;17.03;;
3443;SDS011;1736;52.068;6.968;2022-12-11T09:21:14;49.57;;;17.20;;
3443;SDS011;1736;52.068;6.968;2022-12-11T09:23:43;37.60;;;15.40;;
3443;SDS011;1736;52.068;6.968;2022-12-11T09:26:12;44.57;;;16.73;;
3443;SDS011;1736;52.068;6.968;2022-12-11T09:28:40;47.70;;;15.87;;
3443;SDS011;1736;52.068;6.968;2022-12-11T09:31:08;47.20;;;16.53;;
3443;SDS011;1736;52.068;6.968;2022-12-11T09:33:35;38.47;;;15.30;;
3443;SDS011;1736;52.068;6.968;2022-12-11T09:36:02;37.70;;;14.70;;
3443;SDS011;1736;52.068;6.968;2022-12-11T09:38:30;45.80;;;16.60;;
3443;SDS011;1736;52.068;6.968;2022-12-11T09:40:57;41.60;;;15.40;;
3443;SDS011;1736;52.068;6.968;2022-12-11T09:43:30;44.90;;;16.77;;
3443;SDS011;1736;52.068;6.968;2022-12-11T09:46:03;46.40;;;17.50;;
3443;SDS011;1736;52.068;6.968;2022-12-11T09:48:32;43.07;;;15.90;;
3443;SDS011;1736;52.068;6.968;2022-12-11T09:50:59;42.27;;;15.07;;
3443;SDS011;1736;52.068;6.968;2022-12-11T09:53:31;38.33;;;14.07;;
3443;SDS011;1736;52.068;6.968;2022-12-11T09:56:02;42.67;;;15.20;;
3443;SDS011;1736;52.068;6.968;2022-12-11T09:58:38;40.10;;;15.10;;
3443;SDS011;1736;52.068;6.968;2022-12-11T10:01:17;41.80;;;15.27;;
3443;SDS011;1736;52.068;6.968;2022-12-11T10:03:56;36.07;;;14.90;;
3443;SDS011;1736;52.068;6.968;2022-12-11T10:06:35;39.20;;;14.87;;
3443;SDS011;1736;52.068;6.968;2022-12-11T10:09:09;35.17;;;14.27;;
3443;SDS011;1736;52.068;6.968;2022-12-11T10:11:50;44.17;;;15.60;;
3443;SDS011;1736;52.068;6.968;2022-12-11T10:14:27;43.43;;;14.30;;
3443;SDS011;1736;52.068;6.968;2022-12-11T10:17:05;46.33;;;15.70;;
3443;SDS011;1736;52.068;6.968;2022-12-11T10:19:37;45.50;;;16.10;;
3443;SDS011;1736;52.068;6.968;2022-12-11T10:22:07;46.50;;;15.40;;
3443;SDS011;1736;52.068;6.968;2022-12-11T10:24:41;41.00;;;14.90;;
3443;SDS011;1736;52.068;6.968;2022-12-11T10:27:12;41.20;;;15.17;;
3443;SDS011;1736;52.068;6.968;2022-12-11T10:29:44;51.00;;;17.90;;
3443;SDS011;1736;52.068;6.968;2022-12-11T10:32:14;41.57;;;16.00;;
3443;SDS011;1736;52.068;6.968;2022-12-11T10:34:47;40.17;;;15.87;;
3443;SDS011;1736;52.068;6.968;2022-12-11T10:37:21;39.50;;;14.20;;
3443;SDS011;1736;52.068;6.968;2022-12-11T10:39:48;38.60;;;14.73;;
3443;SDS011;1736;52.068;6.968;2022-12-11T10:42:15;44.67;;;15.50;;
3443;SDS011;1736;52.068;6.968;2022-12-11T10:44:55;43.33;;;16.40;;
3443;SDS011;1736;52.068;6.968;2022-12-11T10:47:22;41.30;;;16.20;;
3443;SDS011;1736;52.068;6.968;2022-12-11T10:49:51;44.93;;;15.13;;
3443;SDS011;1736;52.068;6.968;2022-12-11T10:52:19;44.50;;;16.97;;
3443;SDS011;1736;52.068;6.968;2022-12-11T10:54:53;38.57;;;14.97;;
3443;SDS011;1736;52.068;6.968;2022-12-11T10:57:25;40.27;;;15.47;;
3443;SDS011;1736;52.068;6.968;2022-12-11T10:59:55;45.80;;;18.13;;
3443;SDS011;1736;52.068;6.968;2022-12-11T11:02:23;47.20;;;16.83;;
3443;SDS011;1736;52.068;6.968;2022-12-11T11:04:52;42.40;;;17.00;;
3443;SDS011;1736;52.068;6.968;2022-12-11T11:07:20;41.27;;;16.20;;
3443;SDS011;1736;52.068;6.968;2022-12-11T11:09:48;39.20;;;15.70;;
3443;SDS011;1736;52.068;6.968;2022-12-11T11:12:19;37.40;;;15.87;;
3443;SDS011;1736;52.068;6.968;2022-12-11T11:14:58;36.13;;;15.30;;
3443;SDS011;1736;52.068;6.968;2022-12-11T11:17:26;37.87;;;15.00;;
3443;SDS011;1736;52.068;6.968;2022-12-11T11:19:53;36.87;;;14.90;;
3443;SDS011;1736;52.068;6.968;2022-12-11T11:22:22;31.17;;;12.30;;
3443;SDS011;1736;52.068;6.968;2022-12-11T11:24:51;28.73;;;12.83;;
3443;SDS011;1736;52.068;6.968;2022-12-11T11:27:27;26.47;;;12.13;;
3443;SDS011;1736;52.068;6.968;2022-12-11T11:29:56;24.10;;;11.00;;
3443;SDS011;1736;52.068;6.968;2022-12-11T11:32:28;22.90;;;11.20;;
3443;SDS011;1736;52.068;6.968;2022-12-11T11:35:04;24.10;;;11.33;;
3443;SDS011;1736;52.068;6.968;2022-12-11T11:37:40;32.03;;;12.37;;
3443;SDS011;1736;52.068;6.968;2022-12-11T11:40:12;28.00;;;13.30;;
3443;SDS011;1736;52.068;6.968;2022-12-11T11:42:44;26.53;;;11.80;;
3443;SDS011;1736;52.068;6.968;2022-12-11T11:45:18;24.90;;;11.50;;
3443;SDS011;1736;52.068;6.968;2022-12-11T11:47:53;28.97;;;13.00;;
3443;SDS011;1736;52.068;6.968;2022-12-11T11:50:26;34.53;;;13.70;;
3443;SDS011;1736;52.068;6.968;2022-12-11T11:52:59;30.57;;;14.87;;
3443;SDS011;1736;52.068;6.968;2022-12-11T11:55:32;30.23;;;13.57;;
3443;SDS011;1736;52.068;6.968;2022-12-11T11:58:07;27.43;;;13.27;;
3443;SDS011;1736;52.068;6.968;2022-12-11T12:00:39;25.80;;;11.30;;
3443;SDS011;1736;52.068;6.968;2022-12-11T12:03:08;25.60;;;12.73;;
3443;SDS011;1736;52.068;6.968;2022-12-11T12:05:37;25.20;;;12.80;;
3443;SDS011;1736;52.068;6.968;2022-12-11T12:08:11;22.50;;;10.83;;
3443;SDS011;1736;52.068;6.968;2022-12-11T12:10:43;28.47;;;12.73;;
3443;SDS011;1736;52.068;6.968;2022-12-11T12:13:18;22.37;;;11.37;;
3443;SDS011;1736;52.068;6.968;2022-12-11T12:15:54;26.27;;;12.20;;
3443;SDS011;1736;52.068;6.968;2022-12-11T12:18:24;26.00;;;12.43;;
3443;SDS011;1736;52.068;6.968;2022-12-11T12:21:02;24.63;;;12.90;;
3443;SDS011;1736;52.068;6.968;2022-12-11T12:23:43;23.23;;;12.10;;
3443;SDS011;1736;52.068;6.968;2022-12-11T12:26:21;27.50;;;13.30;;
3443;SDS011;1736;52.068;6.968;2022-12-11T12:28:55;22.13;;;11.60;;
3443;SDS011;1736;52.068;6.968;2022-12-11T12:31:38;28.40;;;12.57;;
3443;SDS011;1736;52.068;6.968;2022-12-11T12:34:15;23.57;;;11.10;;
3443;SDS011;1736;52.068;6.968;2022-12-11T12:36:52;24.90;;;11.03;;
3443;SDS011;1736;52.068;6.968;2022-12-11T12:39:28;26.17;;;12.10;;
3443;SDS011;1736;52.068;6.968;2022-12-11T12:42:06;29.47;;;12.60;;
3443;SDS011;1736;52.068;6.968;2022-12-11T12:44:40;24.13;;;10.43;;
3443;SDS011;1736;52.068;6.968;2022-12-11T12:47:18;21.43;;;10.77;;
3443;SDS011;1736;52.068;6.968;2022-12-11T12:49:46;26.70;;;11.83;;
3443;SDS011;1736;52.068;6.968;2022-12-11T12:52:15;29.37;;;14.33;;
3443;SDS011;1736;52.068;6.968;2022-12-11T12:54:46;31.97;;;14.73;;
3443;SDS011;1736;52.068;6.968;2022-12-11T12:57:30;32.23;;;13.33;;
3443;SDS011;1736;52.068;6.968;2022-12-11T12:59:57;28.33;;;14.60;;
3443;SDS011;1736;52.068;6.968;2022-12-11T13:02:25;24.03;;;12.67;;
3443;SDS011;1736;52.068;6.968;2022-12-11T13:04:55;26.00;;;13.47;;
3443;SDS011;1736;52.068;6.968;2022-12-11T13:07:25;25.50;;;11.70;;
3443;SDS011;1736;52.068;6.968;2022-12-11T13:09:55;25.23;;;12.23;;
3443;SDS011;1736;52.068;6.968;2022-12-11T13:12:30;25.50;;;12.60;;
3443;SDS011;1736;52.068;6.968;2022-12-11T13:14:59;28.43;;;12.67;;
3443;SDS011;1736;52.068;6.968;2022-12-11T13:17:35;24.03;;;12.00;;
3443;SDS011;1736;52.068;6.968;2022-12-11T13:20:11;31.57;;;12.90;;
3443;SDS011;1736;52.068;6.968;2022-12-11T13:22:49;26.27;;;14.07;;
3443;SDS011;1736;52.068;6.968;2022-12-11T13:25:20;26.93;;;13.33;;
3443;SDS011;1736;52.068;6.968;2022-12-11T13:27:52;26.00;;;12.53;;
3443;SDS011;1736;52.068;6.968;2022-12-11T13:30:29;27.47;;;13.50;;
3443;SDS011;1736;52.068;6.968;2022-12-11T13:32:59;23.17;;;11.50;;
3443;SDS011;1736;52.068;6.968;2022-12-11T13:35:29;26.07;;;13.37;;
3443;SDS011;1736;52.068;6.968;2022-12-11T13:38:00;25.17;;;13.20;;
3443;SDS011;1736;52.068;6.968;2022-12-11T13:40:34;27.37;;;13.37;;
3443;SDS011;1736;52.068;6.968;2022-12-11T13:43:04;26.27;;;12.03;;
3443;SDS011;1736;52.068;6.968;2022-12-11T13:45:37;25.30;;;12.63;;
3443;SDS011;1736;52.068;6.968;2022-12-11T13:48:14;28.50;;;13.30;;
3443;SDS011;1736;52.068;6.968;2022-12-11T13:50:44;28.33;;;13.57;;
3443;SDS011;1736;52.068;6.968;2022-12-11T13:53:13;25.67;;;11.93;;
3443;SDS011;1736;52.068;6.968;2022-12-11T13:55:40;23.97;;;12.30;;
3443;SDS011;1736;52.068;6.968;2022-12-11T13:58:13;22.40;;;11.00;;
3443;SDS011;1736;52.068;6.968;2022-12-11T14:00:41;22.43;;;11.30;;
3443;SDS011;1736;52.068;6.968;2022-12-11T14:03:09;20.03;;;11.27;;
3443;SDS011;1736;52.068;6.968;2022-12-11T14:05:37;20.93;;;11.80;;
3443;SDS011;1736;52.068;6.968;2022-12-11T14:08:06;20.48;;;11.70;;
3443;SDS011;1736;52.068;6.968;2022-12-11T14:10:35;26.63;;;12.17;;
3443;SDS011;1736;52.068;6.968;2022-12-11T14:13:02;28.57;;;12.80;;
3443;SDS011;1736;52.068;6.968;2022-12-11T14:15:31;19.40;;;11.57;;
3443;SDS011;1736;52.068;6.968;2022-12-11T14:18:00;24.87;;;10.90;;
3443;SDS011;1736;52.068;6.968;2022-12-11T14:20:28;23.90;;;11.53;;
3443;SDS011;1736;52.068;6.968;2022-12-11T14:23:04;23.30;;;11.13;;
3443;SDS011;1736;52.068;6.968;2022-12-11T14:25:31;22.50;;;10.83;;
3443;SDS011;1736;52.068;6.968;2022-12-11T14:27:58;25.73;;;13.03;;
3443;SDS011;1736;52.068;6.968;2022-12-11T14:30:26;31.73;;;16.67;;
3443;SDS011;1736;52.068;6.968;2022-12-11T14:32:56;32.87;;;16.10;;
3443;SDS011;1736;52.068;6.968;2022-12-11T14:35:25;25.07;;;12.33;;
3443;SDS011;1736;52.068;6.968;2022-12-11T14:37:54;20.43;;;11.53;;
3443;SDS011;1736;52.068;6.968;2022-12-11T14:40:25;20.93;;;11.60;;
3443;SDS011;1736;52.068;6.968;2022-12-11T14:42:56;23.53;;;11.40;;
3443;SDS011;1736;52.068;6.968;2022-12-11T14:45:27;21.03;;;11.33;;
3443;SDS011;1736;52.068;6.968;2022-12-11T14:47:57;21.87;;;11.83;;
3443;SDS011;1736;52.068;6.968;2022-12-11T14:50:26;31.03;;;11.80;;
3443;SDS011;1736;52.068;6.968;2022-12-11T14:53:01;23.03;;;12.03;;
3443;SDS011;1736;52.068;6.968;2022-12-11T14:55:31;28.20;;;13.47;;
3443;SDS011;1736;52.068;6.968;2022-12-11T14:58:00;28.97;;;14.57;;
3443;SDS011;1736;52.068;6.968;2022-12-11T15:00:33;23.67;;;13.00;;
3443;SDS011;1736;52.068;6.968;2022-12-11T15:03:02;25.83;;;11.30;;
3443;SDS011;1736;52.068;6.968;2022-12-11T15:05:31;19.00;;;10.13;;